Time;durP1;ratioP1;P1;durP2;ratioP2;P2;SDS_P1;SDS_P2;PMS_P1;PMS_P2;Temp;Humidity;BMP_temperature;BMP_pressure;BME280_temperature;BME280_humidity;BME280_pressure;Samples;Min_cycle;Max_cycle;Signal;HPM_P1;HPM_P2
2021/01/12 00:00:44;;;;;;;13.23;10.25;;;2.90;99.90;;;;;;5032311;28;20244;-79
2021/01/12 00:03:11;;;;;;;12.38;10.07;;;2.80;99.90;;;;;;5059609;28;20163;-78
2021/01/12 00:05:38;;;;;;;14.23;11.30;;;2.80;99.90;;;;;;5065134;28;20058;-79
2021/01/12 00:08:07;;;;;;;15.13;12.07;;;2.80;99.90;;;;;;5033299;28;20045;-80
2021/01/12 00:10:35;;;;;;;12.35;10.80;;;2.80;99.90;;;;;;5052092;28;20040;-78
2021/01/12 00:13:02;;;;;;;18.80;11.48;;;2.80;99.90;;;;;;5049549;28;20044;-79
2021/01/12 00:15:28;;;;;;;12.07;10.73;;;2.80;99.90;;;;;;5049932;28;20040;-79
2021/01/12 00:17:55;;;;;;;12.90;11.35;;;2.80;99.90;;;;;;5034061;28;20045;-78
2021/01/12 00:20:21;;;;;;;12.15;10.15;;;2.80;99.90;;;;;;5018853;28;20049;-77
2021/01/12 00:22:48;;;;;;;10.90;9.70;;;2.80;99.90;;;;;;5075880;28;20045;-78
2021/01/12 00:25:14;;;;;;;12.63;9.55;;;2.90;99.90;;;;;;5037368;28;20045;-78
2021/01/12 00:27:53;;;;;;;9.85;8.90;;;2.90;99.90;;;;;;5070785;28;20056;-78
2021/01/12 00:30:21;;;;;;;11.02;9.88;;;2.90;99.90;;;;;;5070736;28;20063;-78
2021/01/12 00:32:48;;;;;;;9.55;8.55;;;2.90;99.90;;;;;;5047008;28;20052;-78
2021/01/12 00:35:14;;;;;;;9.00;8.20;;;2.90;99.90;;;;;;5050484;28;20048;-78
2021/01/12 00:37:41;;;;;;;9.40;8.43;;;3.00;99.90;;;;;;5036005;28;20427;-78
2021/01/12 00:40:08;;;;;;;10.63;9.50;;;2.90;99.90;;;;;;5050330;28;20056;-78
2021/01/12 00:42:35;;;;;;;10.23;9.20;;;2.90;99.90;;;;;;5052201;28;20135;-80
2021/01/12 00:45:03;;;;;;;9.23;8.40;;;2.90;99.90;;;;;;5037238;28;20066;-78
2021/01/12 00:47:30;;;;;;;9.70;8.80;;;2.90;99.90;;;;;;5070822;28;20111;-78
2021/01/12 00:49:56;;;;;;;10.68;8.75;;;3.00;99.90;;;;;;5053745;28;20052;-78
2021/01/12 00:52:23;;;;;;;8.70;7.90;;;3.00;99.90;;;;;;5032373;28;20049;-79
2021/01/12 00:54:49;;;;;;;9.18;8.27;;;3.00;99.90;;;;;;5017709;28;20214;-79
2021/01/12 00:57:16;;;;;;;8.73;7.85;;;3.00;99.90;;;;;;5032638;28;20064;-79
2021/01/12 00:59:45;;;;;;;9.82;8.82;;;3.00;99.90;;;;;;5016975;28;20049;-79
2021/01/12 01:02:12;;;;;;;9.23;8.32;;;3.00;99.90;;;;;;5049652;28;20056;-79
2021/01/12 01:04:39;;;;;;;10.00;9.15;;;3.00;99.90;;;;;;5033677;28;20140;-80
2021/01/12 01:07:06;;;;;;;9.23;8.38;;;3.00;99.90;;;;;;5014674;28;20049;-78
2021/01/12 01:09:32;;;;;;;8.60;7.80;;;3.00;99.90;;;;;;5066775;28;20044;-80
2021/01/12 01:11:59;;;;;;;9.80;8.80;;;3.00;99.90;;;;;;5037788;28;20071;-79
2021/01/12 01:14:25;;;;;;;9.40;8.57;;;3.10;99.90;;;;;;5016798;28;20052;-79
2021/01/12 01:16:52;;;;;;;9.43;8.55;;;3.00;99.90;;;;;;5028599;28;20049;-79
2021/01/12 01:19:20;;;;;;;9.02;8.13;;;3.00;99.90;;;;;;5049013;28;20462;-78
2021/01/12 01:21:50;;;;;;;9.50;8.60;;;3.10;99.90;;;;;;5028484;28;20172;-79
2021/01/12 01:24:16;;;;;;;10.10;8.50;;;3.00;99.90;;;;;;5016009;28;20059;-78
2021/01/12 01:26:46;;;;;;;9.18;8.18;;;3.00;99.90;;;;;;5032806;28;20053;-78
2021/01/12 01:29:13;;;;;;;8.75;7.85;;;3.00;99.90;;;;;;5031350;28;20103;-79
2021/01/12 01:31:42;;;;;;;8.88;7.97;;;3.00;99.90;;;;;;5011385;28;20042;-78
2021/01/12 01:34:08;;;;;;;10.27;8.20;;;3.00;99.90;;;;;;5045519;28;20064;-77
2021/01/12 01:36:35;;;;;;;8.27;7.40;;;3.00;99.90;;;;;;5030552;28;20072;-78
2021/01/12 01:39:02;;;;;;;9.55;8.55;;;3.00;99.90;;;;;;5031818;28;20048;-78
2021/01/12 01:41:30;;;;;;;8.73;7.55;;;3.00;99.90;;;;;;5032451;28;20052;-77
2021/01/12 01:43:56;;;;;;;7.80;7.15;;;3.00;99.90;;;;;;5015159;28;20072;-79
2021/01/12 01:46:23;;;;;;;8.55;7.65;;;3.00;99.90;;;;;;5046185;28;20065;-80
2021/01/12 01:48:50;;;;;;;8.75;7.85;;;2.90;99.90;;;;;;5031205;28;20044;-79
2021/01/12 01:51:17;;;;;;;8.80;7.95;;;2.90;99.90;;;;;;5041928;28;20504;-79
2021/01/12 01:53:43;;;;;;;7.47;6.78;;;2.90;99.90;;;;;;5030732;28;20095;-79
2021/01/12 01:56:10;;;;;;;9.15;8.30;;;2.90;99.90;;;;;;5021241;28;20056;-78
2021/01/12 01:58:40;;;;;;;7.93;7.13;;;2.90;99.90;;;;;;5047708;28;20059;-78
2021/01/12 02:01:08;;;;;;;8.30;6.97;;;2.90;99.90;;;;;;5025359;28;20302;-79
2021/01/12 02:04:14;;;;;;;8.05;7.32;;;3.00;99.90;;;;;;5047171;28;20414;-81
2021/01/12 02:06:43;;;;;;;7.75;7.05;;;2.90;99.90;;;;;;5042645;28;20068;-80
2021/01/12 02:09:19;;;;;;;7.82;7.05;;;2.90;99.90;;;;;;5047590;28;20059;-80
2021/01/12 02:11:52;;;;;;;8.10;7.13;;;2.90;99.90;;;;;;5020751;28;20240;-79
2021/01/12 02:14:21;;;;;;;7.38;6.68;;;2.90;99.90;;;;;;5028169;28;20045;-81
2021/01/12 02:16:50;;;;;;;7.20;6.50;;;2.90;99.90;;;;;;5060087;28;20115;-78
2021/01/12 02:19:18;;;;;;;8.60;7.20;;;2.90;99.90;;;;;;5068434;28;20124;-80
2021/01/12 02:21:47;;;;;;;6.40;5.85;;;3.00;99.90;;;;;;5035403;28;20037;-81
2021/01/12 02:24:15;;;;;;;7.57;6.88;;;2.90;99.90;;;;;;5051061;28;20110;-79
2021/01/12 02:26:41;;;;;;;6.65;5.95;;;3.00;99.90;;;;;;5031991;28;20057;-81
2021/01/12 02:29:08;;;;;;;7.10;6.40;;;3.00;99.90;;;;;;5028549;28;20054;-81
2021/01/12 02:31:34;;;;;;;6.13;5.60;;;3.10;99.90;;;;;;5035503;28;20049;-79
2021/01/12 02:34:04;;;;;;;7.22;6.53;;;3.10;99.90;;;;;;5044863;28;20049;-79
2021/01/12 02:36:31;;;;;;;6.57;6.05;;;3.10;99.90;;;;;;5030447;28;20119;-80
2021/01/12 02:38:59;;;;;;;5.60;5.20;;;3.10;99.90;;;;;;5021925;28;20072;-79
2021/01/12 02:41:30;;;;;;;6.80;6.20;;;3.10;99.90;;;;;;5033840;28;20052;-81
2021/01/12 02:43:57;;;;;;;6.45;5.95;;;3.10;99.90;;;;;;5042166;28;20068;-79
2021/01/12 02:46:24;;;;;;;6.72;6.15;;;3.10;99.90;;;;;;5024026;28;20056;-81
2021/01/12 02:48:51;;;;;;;7.05;6.38;;;3.10;99.90;;;;;;5031665;28;20041;-80
2021/01/12 02:51:18;;;;;;;5.97;5.57;;;3.20;99.90;;;;;;5039500;28;20156;-79
2021/01/12 02:53:44;;;;;;;5.88;5.47;;;3.20;99.90;;;;;;5030403;28;20060;-78
2021/01/12 02:56:10;;;;;;;6.07;5.57;;;3.20;99.90;;;;;;5041433;28;20090;-79
2021/01/12 02:58:37;;;;;;;5.65;5.25;;;3.20;99.90;;;;;;5030105;28;20103;-80
2021/01/12 03:01:04;;;;;;;6.05;5.60;;;3.20;99.90;;;;;;5029627;28;20056;-80
2021/01/12 03:03:31;;;;;;;5.90;5.50;;;3.20;99.90;;;;;;5014975;28;20227;-80
2021/01/12 03:05:58;;;;;;;5.88;5.47;;;3.20;99.90;;;;;;5047488;28;20049;-80
2021/01/12 03:08:24;;;;;;;6.03;5.53;;;3.20;99.90;;;;;;5031220;28;20045;-81
2021/01/12 03:10:51;;;;;;;6.15;5.75;;;3.20;99.90;;;;;;5029967;28;20076;-80
2021/01/12 03:13:17;;;;;;;5.53;5.20;;;3.20;99.90;;;;;;5012798;28;20099;-80
2021/01/12 03:15:44;;;;;;;5.38;4.97;;;3.20;99.90;;;;;;5030503;28;20045;-80
2021/01/12 03:18:10;;;;;;;5.80;5.40;;;3.20;99.90;;;;;;5048037;28;20136;-81
2021/01/12 03:20:36;;;;;;;5.82;5.43;;;3.20;99.90;;;;;;5048243;28;20040;-81
2021/01/12 03:23:03;;;;;;;7.55;6.07;;;3.20;99.90;;;;;;5030146;28;20503;-81
2021/01/12 03:25:30;;;;;;;5.03;4.70;;;3.20;99.90;;;;;;5030428;28;20053;-81
2021/01/12 03:27:57;;;;;;;5.60;5.30;;;3.20;99.90;;;;;;5047752;28;20056;-80
2021/01/12 03:30:23;;;;;;;5.05;4.85;;;3.20;99.90;;;;;;5014723;28;20045;-79
2021/01/12 03:32:52;;;;;;;4.95;4.65;;;3.20;99.90;;;;;;5028605;28;20155;-79
2021/01/12 03:35:20;;;;;;;5.03;4.70;;;3.20;99.90;;;;;;5065697;28;20418;-81
2021/01/12 03:37:48;;;;;;;4.90;4.70;;;3.20;99.90;;;;;;5049929;28;20094;-81
2021/01/12 03:40:15;;;;;;;4.93;4.63;;;3.20;99.90;;;;;;5050299;28;20170;-82
2021/01/12 03:42:42;;;;;;;5.10;4.82;;;3.20;99.90;;;;;;5067640;28;20060;-81
2021/01/12 03:45:09;;;;;;;4.57;4.38;;;3.20;99.90;;;;;;5058792;28;20098;-80
2021/01/12 03:47:36;;;;;;;5.45;5.25;;;3.20;99.90;;;;;;5065667;28;20467;-81
2021/01/12 03:50:05;;;;;;;5.18;4.97;;;3.20;99.90;;;;;;5051129;28;20048;-81
2021/01/12 03:52:32;;;;;;;5.35;5.05;;;3.20;99.90;;;;;;5027993;28;20049;-82
2021/01/12 03:54:59;;;;;;;4.85;4.65;;;3.20;99.90;;;;;;5029822;28;20128;-77
2021/01/12 03:57:26;;;;;;;4.97;4.78;;;3.20;99.90;;;;;;5045489;28;20122;-79
2021/01/12 03:59:52;;;;;;;4.93;4.70;;;3.20;99.90;;;;;;5028603;28;20065;-79
2021/01/12 04:02:18;;;;;;;4.60;4.40;;;3.10;99.90;;;;;;5028801;28;20057;-79
2021/01/12 04:04:45;;;;;;;4.93;4.60;;;3.10;99.90;;;;;;5030227;28;20498;-79
2021/01/12 04:07:12;;;;;;;4.75;4.55;;;3.10;99.90;;;;;;5003550;28;20435;-80
2021/01/12 04:09:40;;;;;;;4.55;4.35;;;3.10;99.90;;;;;;5021047;28;20048;-79
2021/01/12 04:12:07;;;;;;;4.20;4.00;;;3.10;99.90;;;;;;5046893;28;20045;-79
2021/01/12 04:14:33;;;;;;;4.20;4.00;;;3.20;99.90;;;;;;5015225;28;20430;-81
2021/01/12 04:17:00;;;;;;;4.70;4.22;;;3.10;99.90;;;;;;5049417;28;20040;-79
2021/01/12 04:19:26;;;;;;;4.55;4.35;;;3.10;99.90;;;;;;5031295;28;20127;-80
2021/01/12 04:21:53;;;;;;;4.50;4.30;;;3.10;99.90;;;;;;5029750;28;20073;-79
2021/01/12 04:24:19;;;;;;;4.43;4.22;;;3.10;99.90;;;;;;5051532;28;20499;-79
2021/01/12 04:26:45;;;;;;;4.07;3.92;;;3.10;99.90;;;;;;5016754;28;20045;-78
2021/01/12 04:29:12;;;;;;;4.30;4.10;;;3.10;99.90;;;;;;5032934;28;20057;-79
2021/01/12 04:31:38;;;;;;;4.13;3.92;;;3.20;99.90;;;;;;5030025;28;20045;-78
2021/01/12 04:34:05;;;;;;;4.25;4.05;;;3.30;99.90;;;;;;5029132;28;20387;-79
2021/01/12 04:36:31;;;;;;;3.92;3.83;;;3.30;99.90;;;;;;5024000;28;20064;-79
2021/01/12 04:38:58;;;;;;;4.60;4.40;;;3.30;99.90;;;;;;5051665;28;20077;-80
2021/01/12 04:41:26;;;;;;;4.30;4.10;;;3.30;99.90;;;;;;5024383;28;20229;-78
2021/01/12 04:43:52;;;;;;;4.10;4.00;;;3.20;99.90;;;;;;5050659;28;20214;-79
2021/01/12 04:46:19;;;;;;;4.07;3.97;;;3.20;99.90;;;;;;5036057;28;20482;-80
2021/01/12 04:48:47;;;;;;;4.22;4.03;;;3.20;99.90;;;;;;5054082;28;20047;-79
2021/01/12 04:51:15;;;;;;;4.07;3.90;;;3.20;99.90;;;;;;5071201;28;20076;-78
2021/01/12 04:53:47;;;;;;;4.20;4.00;;;3.30;99.90;;;;;;5054691;28;20102;-79
2021/01/12 04:56:14;;;;;;;4.50;4.30;;;3.30;99.90;;;;;;5055151;28;20079;-79
2021/01/12 04:58:42;;;;;;;4.28;4.07;;;3.30;99.90;;;;;;5071672;28;20041;-79
2021/01/12 05:01:11;;;;;;;3.95;3.85;;;3.30;99.90;;;;;;5034999;28;20045;-78
2021/01/12 05:03:48;;;;;;;3.97;3.88;;;3.30;99.90;;;;;;5069841;28;20041;-80
2021/01/12 05:06:17;;;;;;;4.05;3.85;;;3.30;99.90;;;;;;5052590;28;20074;-78
2021/01/12 05:08:58;;;;;;;4.50;4.30;;;3.30;99.90;;;;;;5069979;28;20716;-78
2021/01/12 05:11:30;;;;;;;3.80;3.70;;;3.30;99.90;;;;;;5051961;28;20056;-79
2021/01/12 05:14:05;;;;;;;3.55;3.40;;;3.30;99.90;;;;;;5040680;28;20051;-78
2021/01/12 05:16:44;;;;;;;;;;;3.40;99.90;;;;;;5067311;28;20060;-78
2021/01/12 05:19:24;;;;;;;3.67;3.58;;;3.40;99.90;;;;;;5071320;28;19927;-79
2021/01/12 05:21:51;;;;;;;3.67;3.58;;;3.40;99.90;;;;;;5045653;28;20047;-80
2021/01/12 05:24:21;;;;;;;4.32;4.13;;;3.50;99.90;;;;;;5049642;28;20652;-80
2021/01/12 05:26:48;;;;;;;3.75;3.65;;;3.50;99.90;;;;;;5052646;28;20504;-79
2021/01/12 05:29:15;;;;;;;3.88;3.78;;;3.50;99.90;;;;;;5068637;28;20041;-79
2021/01/12 05:31:46;;;;;;;4.30;4.20;;;3.50;99.90;;;;;;5046034;28;20080;-78
2021/01/12 05:34:16;;;;;;;4.82;4.47;;;3.50;99.90;;;;;;5032189;28;20056;-76
2021/01/12 05:36:47;;;;;;;6.97;6.28;;;3.50;99.90;;;;;;5064211;28;20048;-78
2021/01/12 05:39:17;;;;;;;4.72;4.53;;;3.50;99.90;;;;;;5048370;28;20044;-77
2021/01/12 05:41:45;;;;;;;4.68;4.47;;;3.60;99.90;;;;;;5071057;28;20053;-79
2021/01/12 05:44:18;;;;;;;4.68;4.47;;;3.50;99.90;;;;;;5049906;28;20078;-77
2021/01/12 05:46:50;;;;;;;4.00;3.80;;;3.50;99.90;;;;;;5063617;28;20441;-77
2021/01/12 05:49:18;;;;;;;4.25;4.05;;;3.60;99.90;;;;;;5049588;28;20044;-78
2021/01/12 05:51:50;;;;;;;4.40;4.15;;;3.60;99.90;;;;;;5033749;28;20697;-78
2021/01/12 05:54:25;;;;;;;3.70;3.60;;;3.60;99.90;;;;;;5064596;28;20056;-80
2021/01/12 05:56:56;;;;;;;4.10;3.83;;;3.60;99.90;;;;;;5066239;28;20796;-77
2021/01/12 05:59:24;;;;;;;3.60;3.50;;;3.60;99.90;;;;;;5066438;28;20054;-77
2021/01/12 06:01:58;;;;;;;4.53;4.22;;;3.50;99.90;;;;;;5065095;28;20449;-77
2021/01/12 06:04:25;;;;;;;4.20;4.00;;;3.60;99.90;;;;;;5065658;28;20099;-78
2021/01/12 06:06:54;;;;;;;4.30;4.00;;;3.60;99.90;;;;;;5032039;28;20040;-77
2021/01/12 06:09:21;;;;;;;5.43;4.93;;;3.60;99.90;;;;;;5051122;28;20060;-79
2021/01/12 06:11:49;;;;;;;4.18;3.97;;;3.60;99.90;;;;;;5048645;28;20139;-79
2021/01/12 06:14:20;;;;;;;4.15;3.90;;;3.60;99.90;;;;;;5048660;28;20053;-78
2021/01/12 06:16:48;;;;;;;3.45;3.25;;;3.60;99.90;;;;;;5026467;28;20352;-78
2021/01/12 06:19:26;;;;;;;3.42;3.17;;;3.60;99.90;;;;;;5029454;28;20449;-79
2021/01/12 06:21:55;;;;;;;3.75;3.50;;;3.60;99.90;;;;;;5026506;28;20071;-78
2021/01/12 06:24:40;;;;;;;2.80;2.70;;;3.60;99.90;;;;;;5029802;28;20145;-79
2021/01/12 06:27:14;;;;;;;3.20;3.00;;;3.60;99.90;;;;;;5026903;28;20454;-80
2021/01/12 06:29:43;;;;;;;2.72;2.63;;;3.60;99.90;;;;;;5029183;28;20139;-78
2021/01/12 06:32:13;;;;;;;2.97;2.85;;;3.70;99.90;;;;;;5062900;28;20414;-77
2021/01/12 06:34:41;;;;;;;3.03;2.90;;;3.60;99.90;;;;;;5065807;28;20052;-81
2021/01/12 06:37:11;;;;;;;3.05;2.90;;;3.70;99.90;;;;;;5027188;28;20071;-77
2021/01/12 06:39:44;;;;;;;3.30;3.10;;;3.70;99.90;;;;;;5029621;28;20055;-78
2021/01/12 06:42:13;;;;;;;3.17;2.88;;;3.70;99.90;;;;;;5028546;28;20503;-78
2021/01/12 06:44:40;;;;;;;2.90;2.70;;;3.70;99.90;;;;;;5047806;28;20052;-78
2021/01/12 06:47:11;;;;;;;3.00;2.90;;;3.70;99.90;;;;;;5014596;28;20064;-80
2021/01/12 06:49:38;;;;;;;2.92;2.60;;;3.80;99.90;;;;;;5029846;28;20076;-78
2021/01/12 06:52:09;;;;;;;3.30;3.10;;;3.80;99.90;;;;;;5044519;28;20118;-78
2021/01/12 06:54:50;;;;;;;3.85;2.70;;;3.70;99.90;;;;;;5045064;28;20053;-77
2021/01/12 06:57:23;;;;;;;3.13;3.00;;;3.70;99.90;;;;;;5039020;28;20137;-79
2021/01/12 06:59:54;;;;;;;3.83;3.58;;;3.70;99.90;;;;;;5028679;28;20049;-77
2021/01/12 07:02:27;;;;;;;2.50;2.40;;;3.70;99.90;;;;;;5040787;28;20052;-79
2021/01/12 07:05:00;;;;;;;2.80;2.70;;;3.80;99.90;;;;;;5029230;28;20742;-79
2021/01/12 07:07:29;;;;;;;2.50;2.40;;;3.70;99.90;;;;;;5045131;28;20063;-78
2021/01/12 07:09:58;;;;;;;2.45;2.35;;;3.70;99.90;;;;;;5028792;28;20049;-78
2021/01/12 07:12:27;;;;;;;2.33;2.22;;;3.70;99.90;;;;;;5010279;28;20444;-77
2021/01/12 07:14:55;;;;;;;1.95;1.88;;;3.70;99.90;;;;;;5027866;28;20134;-79
2021/01/12 07:17:25;;;;;;;2.60;2.50;;;3.70;99.90;;;;;;5046345;28;20037;-77
2021/01/12 07:20:28;;;;;;;2.35;2.25;;;3.70;99.90;;;;;;5047804;28;20047;-78
2021/01/12 07:23:01;;;;;;;2.50;2.30;;;3.80;99.90;;;;;;4997781;28;20108;-77
2021/01/12 07:25:35;;;;;;;2.20;2.10;;;3.80;99.90;;;;;;5044898;28;20422;-78
2021/01/12 07:28:09;;;;;;;2.40;2.30;;;3.80;99.90;;;;;;5031228;28;20132;-78
2021/01/12 07:30:39;;;;;;;2.33;2.22;;;3.80;99.90;;;;;;5025448;28;20140;-81
2021/01/12 07:33:17;;;;;;;2.60;2.50;;;3.80;99.90;;;;;;5029899;28;20049;-78
2021/01/12 07:35:47;;;;;;;2.55;2.33;;;3.90;99.90;;;;;;5024855;28;20055;-79
2021/01/12 07:38:18;;;;;;;2.63;2.53;;;3.90;99.90;;;;;;5042849;28;20439;-77
2021/01/12 07:40:46;;;;;;;4.85;3.22;;;3.90;99.90;;;;;;5044253;28;20052;-78
2021/01/12 07:43:17;;;;;;;3.38;3.17;;;3.90;99.90;;;;;;5066853;28;20094;-79
2021/01/12 07:45:46;;;;;;;2.90;2.80;;;3.90;99.90;;;;;;5045202;28;20048;-77
2021/01/12 07:48:13;;;;;;;2.70;2.60;;;3.90;99.90;;;;;;5065457;28;20076;-78
2021/01/12 07:50:43;;;;;;;2.40;2.30;;;3.90;99.90;;;;;;5044919;28;20064;-76
2021/01/12 07:53:10;;;;;;;2.67;2.58;;;3.80;99.90;;;;;;5046378;28;20103;-78
2021/01/12 07:55:40;;;;;;;3.20;3.00;;;3.90;99.90;;;;;;5045530;28;20043;-77
2021/01/12 07:58:08;;;;;;;2.88;2.78;;;3.90;99.90;;;;;;5045982;28;20711;-78
2021/01/12 08:00:36;;;;;;;2.88;2.78;;;3.90;99.90;;;;;;5027869;28;20055;-75
2021/01/12 08:03:04;;;;;;;2.83;2.72;;;3.90;99.90;;;;;;5045756;28;20491;-77
2021/01/12 08:05:31;;;;;;;3.10;3.00;;;3.90;99.90;;;;;;5028384;28;20087;-77
2021/01/12 08:08:04;;;;;;;2.72;2.63;;;3.90;99.90;;;;;;5028793;28;20048;-77
2021/01/12 08:10:32;;;;;;;2.60;2.50;;;4.00;99.90;;;;;;5010051;28;20092;-76
2021/01/12 08:13:03;;;;;;;2.95;2.75;;;4.00;99.90;;;;;;5048207;28;20503;-76
2021/01/12 08:15:30;;;;;;;3.25;3.05;;;4.00;99.90;;;;;;5062611;28;20094;-76
2021/01/12 08:17:56;;;;;;;4.30;4.10;;;4.00;99.90;;;;;;5043429;28;20554;-76
2021/01/12 08:20:23;;;;;;;4.78;3.72;;;4.00;99.90;;;;;;5028549;28;20127;-76
2021/01/12 08:22:53;;;;;;;3.40;3.20;;;4.00;99.90;;;;;;5045491;28;20095;-75
2021/01/12 08:25:21;;;;;;;3.60;3.40;;;4.00;99.90;;;;;;5046476;28;20041;-77
2021/01/12 08:27:56;;;;;;;3.17;2.97;;;4.10;99.90;;;;;;5030494;28;20132;-76
2021/01/12 08:30:23;;;;;;;;;;;4.10;99.90;;;;;;5014493;28;20095;-76
2021/01/12 08:33:06;;;;;;;4.05;3.75;;;4.10;99.90;;;;;;5029510;28;19921;-77
2021/01/12 08:35:37;;;;;;;3.42;3.17;;;4.10;99.90;;;;;;5016114;28;20056;-78
2021/01/12 08:38:07;;;;;;;3.63;3.42;;;4.10;99.90;;;;;;5043459;28;20063;-78
2021/01/12 08:40:43;;;;;;;4.13;3.83;;;4.10;99.90;;;;;;5035370;28;20487;-76
2021/01/12 08:43:21;;;;;;;3.67;3.40;;;4.20;99.90;;;;;;5049402;28;20052;-76
2021/01/12 08:45:48;;;;;;;3.50;3.30;;;4.10;99.90;;;;;;5037818;28;20489;-77
2021/01/12 08:48:16;;;;;;;3.85;3.55;;;4.10;99.90;;;;;;5029452;28;20672;-77
2021/01/12 08:50:45;;;;;;;4.70;4.40;;;4.00;99.90;;;;;;5028291;28;20460;-77
2021/01/12 08:53:16;;;;;;;5.13;4.82;;;4.00;99.90;;;;;;5045412;28;20065;-77
2021/01/12 08:55:43;;;;;;;4.72;4.43;;;3.90;99.90;;;;;;5045949;28;20106;-76
2021/01/12 08:58:10;;;;;;;4.80;4.50;;;4.00;99.90;;;;;;5030510;28;20053;-76
2021/01/12 09:00:39;;;;;;;4.47;4.18;;;3.90;99.90;;;;;;5011799;28;20065;-74
2021/01/12 09:03:07;;;;;;;5.03;4.63;;;4.00;99.90;;;;;;5044447;28;20803;-76
2021/01/12 09:05:39;;;;;;;3.72;3.50;;;4.00;99.90;;;;;;5028180;28;20103;-74
2021/01/12 09:08:07;;;;;;;4.63;4.32;;;4.00;99.90;;;;;;5045904;28;20132;-75
2021/01/12 09:10:36;;;;;;;5.47;5.03;;;4.00;99.90;;;;;;5028527;28;20659;-75
2021/01/12 09:13:02;;;;;;;6.15;5.65;;;3.90;99.90;;;;;;5024530;28;20056;-75
2021/01/12 09:15:30;;;;;;;4.32;3.97;;;4.00;99.90;;;;;;5045464;28;20041;-73
2021/01/12 09:18:13;;;;;;;4.97;4.32;;;4.00;99.90;;;;;;5029131;28;20148;-73
2021/01/12 09:20:39;;;;;;;5.93;5.43;;;4.00;99.90;;;;;;5036047;28;20157;-73
2021/01/12 09:23:12;;;;;;;5.72;5.22;;;4.00;99.90;;;;;;5027920;28;20106;-73
2021/01/12 09:25:41;;;;;;;5.93;5.43;;;4.00;99.90;;;;;;5050145;28;20053;-73
2021/01/12 09:28:13;;;;;;;5.93;5.50;;;4.00;99.90;;;;;;5065985;28;20052;-73
2021/01/12 09:30:42;;;;;;;10.75;8.70;;;4.00;99.90;;;;;;5061076;28;20124;-73
2021/01/12 09:33:11;;;;;;;5.75;5.25;;;4.10;99.90;;;;;;5044648;28;20062;-74
2021/01/12 09:35:38;;;;;;;8.88;7.97;;;4.10;99.90;;;;;;5041612;28;20049;-73
2021/01/12 09:38:04;;;;;;;8.63;7.72;;;4.10;99.90;;;;;;5017682;28;20041;-75
2021/01/12 09:40:32;;;;;;;11.23;8.32;;;4.20;99.90;;;;;;5043929;28;20099;-73
2021/01/12 09:42:58;;;;;;;6.68;5.57;;;4.20;99.90;;;;;;5046133;28;20139;-73
2021/01/12 09:45:26;;;;;;;11.18;7.88;;;4.30;99.90;;;;;;5027852;28;20049;-74
2021/01/12 09:47:53;;;;;;;8.25;7.45;;;4.30;99.90;;;;;;5040289;28;20407;-74
2021/01/12 09:50:19;;;;;;;8.43;7.60;;;4.20;99.90;;;;;;5028908;28;20052;-74
2021/01/12 09:52:46;;;;;;;8.18;7.47;;;4.20;99.90;;;;;;5060010;28;20094;-74
2021/01/12 09:55:12;;;;;;;7.10;6.47;;;4.30;99.90;;;;;;5064125;28;20137;-74
2021/01/12 09:57:39;;;;;;;8.10;6.78;;;4.30;99.90;;;;;;5064413;28;20525;-74
2021/01/12 10:00:08;;;;;;;13.50;8.13;;;4.30;99.90;;;;;;5064397;28;20045;-72
2021/01/12 10:02:40;;;;;;;8.02;6.97;;;4.30;99.90;;;;;;5059423;28;20044;-73
2021/01/12 10:05:07;;;;;;;7.95;7.20;;;4.40;99.90;;;;;;5063689;28;20132;-73
2021/01/12 10:07:33;;;;;;;7.63;6.93;;;4.50;99.90;;;;;;5064288;28;20071;-73
2021/01/12 10:10:00;;;;;;;6.28;5.68;;;4.60;99.90;;;;;;5064446;28;20048;-72
2021/01/12 10:12:26;;;;;;;6.88;6.28;;;4.60;99.90;;;;;;5051676;28;20052;-71
2021/01/12 10:14:53;;;;;;;6.97;6.28;;;4.60;99.90;;;;;;5064258;28;20057;-72
2021/01/12 10:17:19;;;;;;;5.68;5.18;;;4.60;99.90;;;;;;5061065;28;20056;-72
2021/01/12 10:19:46;;;;;;;6.07;5.45;;;4.60;99.90;;;;;;5065354;28;20040;-72
2021/01/12 10:22:12;;;;;;;7.47;6.38;;;4.60;99.90;;;;;;5030498;28;20072;-72
2021/01/12 10:24:39;;;;;;;6.90;6.15;;;4.60;99.90;;;;;;5045791;28;20053;-72
2021/01/12 10:27:06;;;;;;;8.95;8.02;;;4.60;99.90;;;;;;5043371;28;20056;-72
2021/01/12 10:29:33;;;;;;;8.65;7.70;;;4.60;99.90;;;;;;5044856;28;20630;-72
2021/01/12 10:31:59;;;;;;;8.25;6.45;;;4.70;99.90;;;;;;5044228;28;20045;-72
2021/01/12 10:34:26;;;;;;;9.18;7.80;;;4.70;99.90;;;;;;5042715;28;20139;-73
2021/01/12 10:36:53;;;;;;;9.40;7.18;;;4.70;99.90;;;;;;5044014;28;20076;-72
2021/01/12 10:39:20;;;;;;;9.15;7.93;;;4.70;99.90;;;;;;5043350;28;20072;-73
2021/01/12 10:41:46;;;;;;;9.18;7.53;;;4.80;99.90;;;;;;5043402;28;20391;-73
2021/01/12 10:44:13;;;;;;;10.25;7.03;;;4.80;99.90;;;;;;5044845;28;20051;-74
2021/01/12 10:46:40;;;;;;;9.73;7.72;;;4.80;99.90;;;;;;5026200;28;20576;-73
2021/01/12 10:49:07;;;;;;;14.95;8.35;;;4.80;99.90;;;;;;5044804;28;20053;-74
2021/01/12 10:51:33;;;;;;;11.48;7.97;;;4.80;99.90;;;;;;5025819;28;20048;-73
2021/01/12 10:54:00;;;;;;;9.52;7.18;;;4.90;99.90;;;;;;5045029;28;20144;-72
2021/01/12 10:56:26;;;;;;;11.80;7.32;;;4.90;99.90;;;;;;5027269;28;20068;-73
2021/01/12 10:58:53;;;;;;;10.27;6.85;;;5.00;99.90;;;;;;5046752;28;20171;-73
2021/01/12 11:01:21;;;;;;;12.10;8.70;;;5.10;99.90;;;;;;5028873;28;20224;-73
2021/01/12 11:03:48;;;;;;;12.35;8.45;;;5.10;99.90;;;;;;5042863;28;20045;-73
2021/01/12 11:06:17;;;;;;;13.32;8.27;;;5.20;99.90;;;;;;5029098;28;20045;-73
2021/01/12 11:08:44;;;;;;;14.05;9.18;;;5.20;99.90;;;;;;5062540;28;20045;-73
2021/01/12 11:11:10;;;;;;;10.02;7.32;;;5.20;99.90;;;;;;5063017;28;20114;-73
2021/01/12 11:13:38;;;;;;;14.10;8.32;;;5.30;99.90;;;;;;5059112;28;20503;-74
2021/01/12 11:16:04;;;;;;;10.15;7.30;;;5.30;99.90;;;;;;5059928;28;20045;-73
2021/01/12 11:18:31;;;;;;;11.07;6.50;;;5.30;99.90;;;;;;5035206;28;20072;-74
2021/01/12 11:21:01;;;;;;;10.70;6.65;;;5.30;99.90;;;;;;5062245;28;20114;-74
2021/01/12 11:23:27;;;;;;;8.68;6.53;;;5.30;99.90;;;;;;5061181;28;20083;-74
2021/01/12 11:25:54;;;;;;;6.05;4.15;;;5.40;99.90;;;;;;5067789;28;20137;-74
2021/01/12 11:28:22;;;;;;;3.83;2.90;;;5.30;99.90;;;;;;5069586;28;20060;-74
2021/01/12 11:30:48;;;;;;;3.75;3.35;;;5.20;99.90;;;;;;5061911;28;20480;-73
2021/01/12 11:33:15;;;;;;;6.20;4.45;;;5.10;99.90;;;;;;5046422;28;20570;-74
2021/01/12 11:35:41;;;;;;;4.97;4.07;;;5.00;99.90;;;;;;5029309;28;20905;-73
2021/01/12 11:38:08;;;;;;;4.22;3.78;;;5.00;99.90;;;;;;5030843;28;20192;-73
2021/01/12 11:40:38;;;;;;;4.60;3.67;;;4.90;99.90;;;;;;5044924;28;20045;-74
2021/01/12 11:43:04;;;;;;;3.90;3.50;;;4.80;99.90;;;;;;5030740;28;20107;-73
2021/01/12 11:45:31;;;;;;;3.08;2.75;;;4.80;99.90;;;;;;5029193;28;20055;-74
2021/01/12 11:47:57;;;;;;;3.13;2.83;;;4.80;99.90;;;;;;5048427;28;20081;-73
2021/01/12 11:50:24;;;;;;;2.92;2.72;;;4.80;99.90;;;;;;5048564;28;20552;-73
2021/01/12 11:52:57;;;;;;;2.92;2.78;;;4.90;99.90;;;;;;5064133;28;20135;-73
2021/01/12 11:55:24;;;;;;;5.18;4.20;;;4.70;99.90;;;;;;5033631;28;20051;-73
2021/01/12 11:57:51;;;;;;;4.13;3.75;;;4.60;99.90;;;;;;5050191;28;20060;-73
2021/01/12 12:00:18;;;;;;;4.97;4.57;;;4.60;99.90;;;;;;5048594;28;20059;-73
2021/01/12 12:02:44;;;;;;;4.05;3.75;;;4.60;99.90;;;;;;5063115;28;20068;-73
2021/01/12 12:05:13;;;;;;;3.22;3.05;;;4.60;99.90;;;;;;5066652;28;20632;-73
2021/01/12 12:07:40;;;;;;;3.95;3.75;;;4.50;99.90;;;;;;5049310;28;20331;-73
2021/01/12 12:10:07;;;;;;;4.50;4.30;;;4.30;99.90;;;;;;5046352;28;20060;-72
2021/01/12 12:12:33;;;;;;;5.10;4.90;;;4.10;99.90;;;;;;5028035;28;20784;-73
2021/01/12 12:15:00;;;;;;;5.15;4.95;;;4.00;99.90;;;;;;5029958;28;20051;-73
2021/01/12 12:17:26;;;;;;;5.32;5.13;;;4.00;99.90;;;;;;5063589;28;20059;-74
2021/01/12 12:19:53;;;;;;;5.90;5.57;;;3.90;99.90;;;;;;5065683;28;20060;-73
2021/01/12 12:22:20;;;;;;;5.32;5.10;;;3.90;99.90;;;;;;5048449;28;20057;-73
2021/01/12 12:24:46;;;;;;;5.70;5.30;;;3.90;99.90;;;;;;5066863;28;20048;-72
2021/01/12 12:27:19;;;;;;;4.97;4.68;;;3.80;99.90;;;;;;5067161;28;20060;-73
2021/01/12 12:29:46;;;;;;;5.15;4.85;;;3.80;99.90;;;;;;5065427;28;20125;-73
2021/01/12 12:32:12;;;;;;;4.40;4.20;;;3.70;99.90;;;;;;5061414;28;20063;-72
2021/01/12 12:34:39;;;;;;;5.78;5.38;;;3.70;99.90;;;;;;5066133;28;20060;-73
2021/01/12 12:37:09;;;;;;;5.88;5.32;;;3.70;99.90;;;;;;5065107;28;20126;-73
2021/01/12 12:39:39;;;;;;;5.25;4.95;;;3.60;99.90;;;;;;5049284;28;20411;-73
2021/01/12 12:42:06;;;;;;;5.20;4.80;;;3.50;99.90;;;;;;5048965;28;20051;-74
2021/01/12 12:44:32;;;;;;;5.78;5.10;;;3.50;99.90;;;;;;5070402;28;20078;-73
2021/01/12 12:46:59;;;;;;;8.93;6.43;;;3.30;99.90;;;;;;5031345;28;20057;-74
2021/01/12 12:49:26;;;;;;;5.13;4.72;;;3.30;99.90;;;;;;5065629;28;20056;-74
2021/01/12 12:51:53;;;;;;;5.05;4.50;;;3.30;99.90;;;;;;5063872;28;20163;-73
2021/01/12 12:54:20;;;;;;;4.65;4.25;;;3.30;99.90;;;;;;5066871;28;20066;-74
2021/01/12 12:56:54;;;;;;;4.75;4.03;;;3.30;99.90;;;;;;5064808;28;20056;-74
2021/01/12 12:59:21;;;;;;;4.68;4.38;;;3.30;99.90;;;;;;5032803;28;20054;-73
2021/01/12 13:01:52;;;;;;;4.53;4.15;;;3.20;99.90;;;;;;5047835;28;20152;-73